Time;durP1;ratioP1;P1;durP2;ratioP2;P2;SDS_P1;SDS_P2;PMS_P1;PMS_P2;Temp;Humidity;BMP_temperature;BMP_pressure;BME280_temperature;BME280_humidity;BME280_pressure;Samples;Min_cycle;Max_cycle;Signal;HPM_P1;HPM_P2
2021/11/24 00:01:07;;;;;;;15.77;10.37;;;;;;;;;;4537273;28;20041;-68
2021/11/24 00:03:18;;;;;;;16.93;9.93;;;;;;;;;;4554572;28;20071;-69
2021/11/24 00:05:31;;;;;;;61.80;55.63;;;;;;;;;;4546096;28;20557;-68
2021/11/24 00:07:45;;;;;;;64.35;57.95;;;;;;;;;;4544975;28;20039;-69
2021/11/24 00:09:56;;;;;;;65.18;58.67;;;;;;;;;;4544960;28;20028;-71
2021/11/24 00:12:07;;;;;;;65.03;58.37;;;;;;;;;;4533659;28;20413;-68
2021/11/24 00:14:17;;;;;;;63.65;57.17;;;;;;;;;;4542813;28;20041;-69
2021/11/24 00:16:27;;;;;;;66.90;60.23;;;;;;;;;;4543703;28;21489;-68
2021/11/24 00:18:38;;;;;;;24.73;21.97;;;;;;;;;;4543086;28;24464;-68
2021/11/24 00:20:48;;;;;;;64.53;58.23;;;;;;;;;;4547450;28;20446;-69
2021/11/24 00:22:59;;;;;;;62.30;55.90;;;;;;;;;;4547210;28;23011;-69
2021/11/24 00:25:10;;;;;;;38.90;34.83;;;;;;;;;;4550236;28;20068;-69
2021/11/24 00:27:21;;;;;;;64.25;57.72;;;;;;;;;;4549731;28;20031;-69
2021/11/24 00:29:31;;;;;;;61.70;55.60;;;;;;;;;;4545355;28;20044;-69
2021/11/24 00:31:42;;;;;;;62.93;56.40;;;;;;;;;;4547074;28;20126;-69
2021/11/24 00:33:52;;;;;;;61.83;55.63;;;;;;;;;;4547304;28;20576;-69
2021/11/24 00:36:03;;;;;;;64.37;58.07;;;;;;;;;;4547847;28;23967;-69
2021/11/24 00:38:13;;;;;;;60.37;54.47;;;;;;;;;;4547565;28;20481;-69
2021/11/24 00:40:24;;;;;;;63.47;57.23;;;;;;;;;;4546525;28;29021;-69
2021/11/24 00:42:34;;;;;;;64.33;57.97;;;;;;;;;;4548711;28;20060;-69
2021/11/24 00:44:45;;;;;;;63.37;57.00;;;;;;;;;;4549070;28;20032;-69
2021/11/24 00:46:55;;;;;;;53.87;48.57;;;;;;;;;;4547381;28;20739;-69
2021/11/24 00:49:07;;;;;;;55.80;50.27;;;;;;;;;;4548293;28;24000;-69
2021/11/24 00:51:17;;;;;;;;;;;;;;;;;;4548503;28;20028;-70
2021/11/24 00:53:28;;;;;;;63.47;57.03;;;;;;;;;;4548109;28;19916;-69
2021/11/24 00:55:38;;;;;;;60.87;54.53;;;;;;;;;;4544755;28;20235;-69
2021/11/24 00:57:48;;;;;;;62.03;55.87;;;;;;;;;;4549046;28;20040;-69
2021/11/24 00:59:59;;;;;;;60.60;54.60;;;;;;;;;;4548039;28;20040;-69
2021/11/24 01:02:09;;;;;;;60.97;54.87;;;;;;;;;;4547641;28;33039;-68
2021/11/24 01:04:20;;;;;;;61.27;55.23;;;;;;;;;;4546268;28;20047;-69
2021/11/24 01:06:30;;;;;;;61.27;54.97;;;;;;;;;;4546990;28;30278;-69
2021/11/24 01:08:41;;;;;;;48.87;44.10;;;;;;;;;;4547749;28;20042;-68
2021/11/24 01:10:51;;;;;;;61.30;55.20;;;;;;;;;;4546518;28;35728;-68
2021/11/24 01:13:01;;;;;;;61.67;55.53;;;;;;;;;;4549843;28;20060;-68
2021/11/24 01:15:12;;;;;;;59.33;53.23;;;;;;;;;;4545663;28;20083;-69
2021/11/24 01:17:23;;;;;;;60.92;54.83;;;;;;;;;;4545366;28;20108;-69
2021/11/24 01:19:33;;;;;;;60.20;54.23;;;;;;;;;;4547701;28;32443;-68
2021/11/24 01:21:45;;;;;;;59.03;53.13;;;;;;;;;;4547009;28;20033;-69
2021/11/24 01:23:55;;;;;;;60.70;54.70;;;;;;;;;;4546900;28;20052;-69
2021/11/24 01:26:05;;;;;;;57.93;52.07;;;;;;;;;;4547501;28;20522;-69
2021/11/24 01:28:16;;;;;;;57.67;51.97;;;;;;;;;;4546705;28;20044;-69
2021/11/24 01:30:26;;;;;;;58.60;52.80;;;;;;;;;;4546861;28;20445;-69
2021/11/24 01:32:38;;;;;;;56.17;50.40;;;;;;;;;;4548673;28;20060;-69
2021/11/24 01:34:48;;;;;;;57.88;52.10;;;;;;;;;;4527649;28;20072;-68
2021/11/24 01:36:59;;;;;;;57.67;51.87;;;;;;;;;;4546214;28;20128;-69
2021/11/24 01:39:09;;;;;;;58.00;52.23;;;;;;;;;;4547287;28;20041;-69
2021/11/24 01:41:20;;;;;;;55.13;49.83;;;;;;;;;;4546575;28;20119;-69
2021/11/24 01:43:30;;;;;;;55.27;49.87;;;;;;;;;;4548813;28;20146;-69
2021/11/24 01:45:41;;;;;;;55.73;50.33;;;;;;;;;;4546867;28;20276;-69
2021/11/24 01:47:51;;;;;;;56.67;51.17;;;;;;;;;;4550073;28;20041;-69
2021/11/24 01:50:03;;;;;;;57.10;51.33;;;;;;;;;;4547551;28;20213;-69
2021/11/24 01:52:15;;;;;;;56.08;50.50;;;;;;;;;;4542992;28;20516;-69
2021/11/24 01:54:27;;;;;;;49.72;44.83;;;;;;;;;;4543323;28;20541;-69
2021/11/24 01:56:37;;;;;;;46.15;41.58;;;;;;;;;;4547353;28;20615;-69
2021/11/24 01:58:47;;;;;;;45.23;40.93;;;;;;;;;;4548765;28;20132;-69
2021/11/24 02:00:58;;;;;;;38.80;35.30;;;;;;;;;;4544992;28;20036;-69
2021/11/24 02:03:09;;;;;;;46.30;42.07;;;;;;;;;;4547883;28;20044;-68
2021/11/24 02:05:19;;;;;;;51.07;46.43;;;;;;;;;;4547727;28;20037;-69
2021/11/24 02:07:30;;;;;;;58.53;53.08;;;;;;;;;;4547713;28;20032;-68
2021/11/24 02:09:42;;;;;;;57.13;51.93;;;;;;;;;;4547392;28;21843;-69
2021/11/24 02:11:53;;;;;;;55.67;50.50;;;;;;;;;;4547235;28;21391;-69
2021/11/24 02:14:05;;;;;;;59.33;53.83;;;;;;;;;;4544144;28;20107;-68
2021/11/24 02:16:16;;;;;;;55.40;50.20;;;;;;;;;;4547071;28;20195;-69
2021/11/24 02:18:26;;;;;;;67.70;61.30;;;;;;;;;;4533510;28;20080;-69
2021/11/24 02:20:38;;;;;;;91.27;82.77;;;;;;;;;;4531720;28;20539;-69
2021/11/24 02:22:48;;;;;;;86.38;78.00;;;;;;;;;;4547207;28;20044;-68
2021/11/24 02:24:58;;;;;;;89.07;80.80;;;;;;;;;;4546826;28;20041;-69
2021/11/24 02:27:11;;;;;;;89.97;81.53;;;;;;;;;;4548396;28;20397;-69
2021/11/24 02:29:22;;;;;;;91.90;83.25;;;;;;;;;;4545323;28;20032;-68
2021/11/24 02:31:32;;;;;;;72.43;65.50;;;;;;;;;;4546008;28;23904;-69
2021/11/24 02:33:56;;;;;;;60.63;54.90;;;;;;;;;;4546464;28;20033;-69
2021/11/24 02:36:07;;;;;;;64.05;57.95;;;;;;;;;;4555452;28;20032;-69
2021/11/24 02:38:18;;;;;;;77.27;70.07;;;;;;;;;;4544110;28;27837;-69
2021/11/24 02:40:30;;;;;;;107.07;97.03;;;;;;;;;;4545920;28;20532;-69
2021/11/24 02:42:41;;;;;;;113.82;102.97;;;;;;;;;;4547147;28;20021;-69
2021/11/24 02:44:52;;;;;;;114.88;103.90;;;;;;;;;;4538036;28;20069;-69
2021/11/24 02:47:09;;;;;;;115.10;104.30;;;;;;;;;;4545719;28;20037;-69
2021/11/24 02:49:20;;;;;;;102.10;92.47;;;;;;;;;;4546913;28;20132;-69
2021/11/24 02:51:30;;;;;;;93.90;85.10;;;;;;;;;;4544961;28;20039;-69
2021/11/24 02:53:42;;;;;;;106.87;96.63;;;;;;;;;;4546128;28;20066;-68
2021/11/24 02:55:54;;;;;;;125.93;113.85;;;;;;;;;;4547008;28;20097;-70
2021/11/24 02:58:04;;;;;;;118.40;106.90;;;;;;;;;;4546349;28;20037;-69
2021/11/24 03:00:25;;;;;;;101.30;91.73;;;;;;;;;;4548382;28;20397;-69
2021/11/24 03:02:35;;;;;;;60.80;54.90;;;;;;;;;;4544620;28;20032;-69
2021/11/24 03:04:45;;;;;;;57.53;51.83;;;;;;;;;;4545406;28;20044;-69
2021/11/24 03:07:01;;;;;;;73.63;66.23;;;;;;;;;;4543092;28;34831;-70
2021/11/24 03:09:11;;;;;;;87.85;79.28;;;;;;;;;;4545230;28;20039;-69
2021/11/24 03:11:21;;;;;;;92.50;83.67;;;;;;;;;;4544989;28;28822;-69
2021/11/24 03:13:32;;;;;;;86.63;78.53;;;;;;;;;;4545638;28;26391;-68
2021/11/24 03:15:42;;;;;;;93.97;85.00;;;;;;;;;;4545098;28;20063;-69
2021/11/24 03:17:53;;;;;;;117.90;106.53;;;;;;;;;;4546139;28;26266;-69
2021/11/24 03:20:06;;;;;;;113.07;101.97;;;;;;;;;;4545446;28;20388;-68
2021/11/24 03:22:23;;;;;;;92.57;83.65;;;;;;;;;;4546319;28;20071;-69
2021/11/24 03:24:33;;;;;;;63.15;57.08;;;;;;;;;;4547653;28;20039;-69
2021/11/24 03:26:44;;;;;;;47.83;43.03;;;;;;;;;;4544590;28;20043;-69
2021/11/24 03:28:54;;;;;;;62.80;56.60;;;;;;;;;;4545892;28;41288;-69
2021/11/24 03:31:05;;;;;;;85.03;76.80;;;;;;;;;;4544745;28;20358;-69
2021/11/24 03:33:16;;;;;;;104.70;94.80;;;;;;;;;;4545717;28;20087;-69
2021/11/24 03:35:27;;;;;;;108.20;97.88;;;;;;;;;;4545016;28;20095;-69
2021/11/24 03:37:38;;;;;;;107.43;96.97;;;;;;;;;;4545898;28;20033;-69
2021/11/24 03:39:48;;;;;;;103.70;94.10;;;;;;;;;;4545260;28;20033;-69
2021/11/24 03:41:59;;;;;;;124.78;112.65;;;;;;;;;;4535689;28;20040;-69
2021/11/24 03:44:09;;;;;;;128.83;116.50;;;;;;;;;;4545729;28;20049;-69
2021/11/24 03:46:21;;;;;;;135.73;122.67;;;;;;;;;;4545666;28;20032;-69
2021/11/24 03:48:31;;;;;;;131.55;119.10;;;;;;;;;;4544577;28;20040;-69
2021/11/24 03:50:42;;;;;;;135.83;122.83;;;;;;;;;;4545099;28;20037;-69
2021/11/24 03:52:52;;;;;;;139.33;125.77;;;;;;;;;;4553823;28;20500;-69
2021/11/24 03:55:05;;;;;;;131.67;119.20;;;;;;;;;;4545436;28;20033;-69
2021/11/24 03:57:15;;;;;;;123.90;112.10;;;;;;;;;;4543905;28;20037;-69
2021/11/24 03:59:26;;;;;;;119.93;108.20;;;;;;;;;;4548165;28;20044;-69
2021/11/24 04:01:36;;;;;;;129.83;117.17;;;;;;;;;;4549463;28;20029;-68
2021/11/24 04:03:47;;;;;;;136.53;123.17;;;;;;;;;;4548680;28;20556;-69
2021/11/24 04:05:58;;;;;;;134.80;122.20;;;;;;;;;;4547823;28;20033;-69
2021/11/24 04:08:08;;;;;;;116.78;105.63;;;;;;;;;;4549475;28;20032;-69
2021/11/24 04:10:19;;;;;;;108.40;97.70;;;;;;;;;;4550511;28;26943;-69
2021/11/24 04:12:29;;;;;;;132.93;120.07;;;;;;;;;;4548883;28;20404;-69
2021/11/24 04:14:40;;;;;;;149.80;135.07;;;;;;;;;;4531244;28;20145;-69
2021/11/24 04:16:50;;;;;;;134.30;121.43;;;;;;;;;;4549055;28;34509;-69
2021/11/24 04:19:01;;;;;;;124.60;112.43;;;;;;;;;;4548935;28;20068;-68
2021/11/24 04:21:11;;;;;;;125.00;112.90;;;;;;;;;;4550814;28;20516;-69
2021/11/24 04:23:22;;;;;;;144.70;130.73;;;;;;;;;;4549301;28;20314;-69
2021/11/24 04:25:33;;;;;;;151.35;136.52;;;;;;;;;;4546920;28;20505;-69
2021/11/24 04:27:44;;;;;;;147.87;133.50;;;;;;;;;;4549561;28;20033;-69
2021/11/24 04:29:54;;;;;;;131.45;119.13;;;;;;;;;;4549198;28;21059;-69
2021/11/24 04:32:05;;;;;;;125.33;113.23;;;;;;;;;;4532744;28;21848;-70
2021/11/24 04:34:15;;;;;;;141.30;127.57;;;;;;;;;;4547405;28;20048;-69
2021/11/24 04:36:26;;;;;;;155.43;140.07;;;;;;;;;;4549569;28;20416;-69
2021/11/24 04:38:36;;;;;;;130.80;117.87;;;;;;;;;;4546505;28;36144;-69
2021/11/24 04:40:47;;;;;;;128.00;115.30;;;;;;;;;;4532218;28;20130;-69
2021/11/24 04:42:59;;;;;;;134.60;121.63;;;;;;;;;;4547653;28;24035;-68
2021/11/24 04:45:10;;;;;;;155.98;140.77;;;;;;;;;;4548858;28;20029;-69
2021/11/24 04:47:20;;;;;;;154.60;139.50;;;;;;;;;;4557013;28;20036;-69
2021/11/24 04:49:31;;;;;;;146.50;132.63;;;;;;;;;;4547611;28;20025;-69
2021/11/24 04:51:41;;;;;;;134.03;121.17;;;;;;;;;;4549297;28;20041;-70
2021/11/24 04:53:51;;;;;;;135.13;122.20;;;;;;;;;;4549042;28;20453;-69
2021/11/24 04:56:03;;;;;;;151.47;136.50;;;;;;;;;;4547090;28;21371;-69
2021/11/24 04:58:13;;;;;;;158.82;143.35;;;;;;;;;;4547922;28;20045;-69
2021/11/24 05:00:24;;;;;;;159.93;144.47;;;;;;;;;;4547247;28;20029;-69
2021/11/24 05:02:34;;;;;;;163.23;147.70;;;;;;;;;;4532192;28;20452;-69
2021/11/24 05:04:44;;;;;;;167.03;150.93;;;;;;;;;;4548559;28;20043;-68
2021/11/24 05:06:55;;;;;;;167.77;151.40;;;;;;;;;;4546092;28;42605;-69
2021/11/24 05:09:07;;;;;;;158.30;142.93;;;;;;;;;;4547188;28;20043;-69
2021/11/24 05:11:19;;;;;;;160.45;144.93;;;;;;;;;;4547232;28;20040;-69
2021/11/24 05:13:29;;;;;;;163.48;147.38;;;;;;;;;;4547361;28;20587;-70
2021/11/24 05:15:42;;;;;;;160.20;144.73;;;;;;;;;;4547279;28;20041;-69
2021/11/24 05:18:20;;;;;;;170.90;153.95;;;;;;;;;;4549488;28;20032;-69
2021/11/24 05:20:26;;;;;;;160.30;144.85;;;;;;;;;;4547780;28;20044;-68
2021/11/24 05:22:37;;;;;;;156.90;141.43;;;;;;;;;;4548648;28;20478;-68
2021/11/24 05:24:47;;;;;;;130.88;118.32;;;;;;;;;;4547521;28;20485;-68
2021/11/24 05:26:58;;;;;;;123.10;111.27;;;;;;;;;;4549386;28;20536;-68
2021/11/24 05:29:08;;;;;;;141.40;127.17;;;;;;;;;;4546921;28;36713;-68
2021/11/24 05:31:19;;;;;;;152.20;137.60;;;;;;;;;;4532366;28;20087;-69
2021/11/24 05:33:30;;;;;;;160.87;145.17;;;;;;;;;;4544925;28;20163;-69
2021/11/24 05:35:40;;;;;;;158.83;143.20;;;;;;;;;;4548242;28;20743;-68
2021/11/24 05:37:52;;;;;;;135.83;122.47;;;;;;;;;;4546401;28;23316;-68
2021/11/24 05:40:03;;;;;;;149.18;134.50;;;;;;;;;;4532981;28;20033;-69
2021/11/24 05:42:14;;;;;;;;;;;;;;;;;;4549111;28;20039;-69
2021/11/24 05:44:25;;;;;;;166.02;149.48;;;;;;;;;;4544444;28;19967;-69
2021/11/24 05:46:43;;;;;;;138.20;124.88;;;;;;;;;;4548083;28;20037;-70
2021/11/24 05:48:54;;;;;;;141.65;128.18;;;;;;;;;;4548445;28;20229;-69
2021/11/24 05:51:05;;;;;;;158.45;142.93;;;;;;;;;;4549426;28;20202;-69
2021/11/24 05:53:19;;;;;;;159.90;143.97;;;;;;;;;;4546021;28;20046;-69
2021/11/24 05:55:30;;;;;;;170.50;153.85;;;;;;;;;;4549144;28;20790;-70
2021/11/24 05:57:40;;;;;;;177.93;160.68;;;;;;;;;;4546510;28;20080;-70
2021/11/24 05:59:50;;;;;;;177.30;159.53;;;;;;;;;;4546380;28;20029;-68
2021/11/24 06:02:01;;;;;;;136.57;123.20;;;;;;;;;;4546179;28;20048;-69
2021/11/24 06:04:11;;;;;;;144.10;130.00;;;;;;;;;;4556017;28;20040;-69
2021/11/24 06:06:22;;;;;;;167.07;150.63;;;;;;;;;;4548004;28;20120;-70
2021/11/24 06:08:32;;;;;;;189.63;171.10;;;;;;;;;;4546713;28;20044;-69
2021/11/24 06:10:43;;;;;;;191.57;172.50;;;;;;;;;;4547251;28;25948;-69
2021/11/24 06:12:54;;;;;;;130.60;118.18;;;;;;;;;;4542904;28;21072;-69
2021/11/24 06:15:05;;;;;;;90.33;81.63;;;;;;;;;;4545646;28;20040;-69
2021/11/24 06:17:16;;;;;;;100.63;90.80;;;;;;;;;;4546332;28;20029;-69
2021/11/24 06:19:26;;;;;;;133.33;120.20;;;;;;;;;;4545744;28;20135;-69
2021/11/24 06:21:36;;;;;;;167.17;150.47;;;;;;;;;;4546497;28;20048;-70
2021/11/24 06:23:48;;;;;;;169.70;153.10;;;;;;;;;;4545397;28;39029;-69
2021/11/24 06:25:59;;;;;;;175.52;158.23;;;;;;;;;;4527674;28;20164;-70
2021/11/24 06:28:09;;;;;;;187.10;168.63;;;;;;;;;;4546340;28;36377;-69
2021/11/24 06:30:20;;;;;;;200.23;180.83;;;;;;;;;;4548591;28;20037;-69
2021/11/24 06:32:31;;;;;;;196.95;177.82;;;;;;;;;;4545793;28;20127;-69
2021/11/24 06:34:41;;;;;;;166.73;150.50;;;;;;;;;;4546676;28;20123;-69
2021/11/24 06:36:54;;;;;;;136.87;123.63;;;;;;;;;;4545782;28;22590;-69
2021/11/24 06:39:04;;;;;;;167.60;151.07;;;;;;;;;;4547052;28;20038;-70
2021/11/24 06:41:15;;;;;;;143.53;129.37;;;;;;;;;;4546294;28;25937;-70
2021/11/24 06:43:25;;;;;;;90.13;81.67;;;;;;;;;;4545241;28;20044;-69
2021/11/24 06:45:36;;;;;;;72.17;65.17;;;;;;;;;;4545654;28;20060;-70
2021/11/24 06:47:46;;;;;;;90.47;81.60;;;;;;;;;;4546133;28;20420;-71
2021/11/24 06:49:57;;;;;;;125.57;113.50;;;;;;;;;;4546560;28;20120;-70
2021/11/24 06:52:07;;;;;;;159.03;143.27;;;;;;;;;;4546142;28;24513;-70
2021/11/24 06:54:18;;;;;;;170.03;153.30;;;;;;;;;;4547170;28;20148;-70
2021/11/24 06:56:28;;;;;;;170.93;154.00;;;;;;;;;;4547279;28;20041;-70
2021/11/24 06:58:38;;;;;;;188.43;169.83;;;;;;;;;;4545666;28;20045;-69
2021/11/24 07:00:49;;;;;;;203.63;183.83;;;;;;;;;;4546553;28;20052;-70
2021/11/24 07:02:59;;;;;;;193.77;174.83;;;;;;;;;;4546247;28;20047;-69
2021/11/24 07:05:11;;;;;;;85.73;77.20;;;;;;;;;;4546659;28;20125;-69
2021/11/24 07:07:21;;;;;;;44.75;40.45;;;;;;;;;;4545908;28;20020;-69
2021/11/24 07:09:32;;;;;;;64.47;58.13;;;;;;;;;;4545378;28;20033;-69
2021/11/24 07:11:42;;;;;;;83.13;74.70;;;;;;;;;;4544344;28;20037;-69
2021/11/24 07:13:53;;;;;;;25.97;22.77;;;;;;;;;;4543111;28;21187;-69
2021/11/24 07:16:03;;;;;;;44.63;40.07;;;;;;;;;;4543960;28;20405;-69
2021/11/24 07:18:14;;;;;;;45.03;40.67;;;;;;;;;;4548376;28;20813;-68
2021/11/24 07:20:24;;;;;;;45.80;41.13;;;;;;;;;;4546229;28;20068;-69
2021/11/24 07:22:35;;;;;;;46.03;41.63;;;;;;;;;;4543500;28;20055;-69
2021/11/24 07:24:45;;;;;;;49.07;44.17;;;;;;;;;;4544818;28;20100;-69
2021/11/24 07:26:56;;;;;;;49.63;44.70;;;;;;;;;;4545527;28;20086;-69
2021/11/24 07:29:07;;;;;;;51.80;46.47;;;;;;;;;;4544569;28;20032;-69
2021/11/24 07:31:18;;;;;;;51.55;46.45;;;;;;;;;;4536662;28;20032;-70
2021/11/24 07:33:28;;;;;;;54.90;49.40;;;;;;;;;;4542948;28;20064;-69
2021/11/24 07:35:38;;;;;;;53.37;48.13;;;;;;;;;;4545426;28;20037;-69
2021/11/24 07:37:49;;;;;;;52.80;47.70;;;;;;;;;;4545466;28;20043;-69
2021/11/24 07:39:59;;;;;;;56.40;50.83;;;;;;;;;;4547600;28;20033;-69
2021/11/24 07:42:10;;;;;;;25.83;23.33;;;;;;;;;;4545458;28;20036;-70
2021/11/24 07:44:20;;;;;;;15.60;10.97;;;;;;;;;;4543605;28;20045;-69
2021/11/24 07:46:31;;;;;;;14.63;10.53;;;;;;;;;;4545731;28;20094;-69
2021/11/24 07:48:42;;;;;;;15.30;10.60;;;;;;;;;;4546558;28;20060;-69
2021/11/24 07:50:53;;;;;;;15.50;10.77;;;;;;;;;;4546247;28;20599;-69
2021/11/24 07:53:03;;;;;;;59.50;53.60;;;;;;;;;;4544681;28;20103;-69
2021/11/24 07:55:13;;;;;;;58.93;53.10;;;;;;;;;;4545578;28;24135;-69
2021/11/24 07:57:24;;;;;;;60.70;54.73;;;;;;;;;;4544849;28;20025;-70
2021/11/24 07:59:36;;;;;;;54.80;49.53;;;;;;;;;;4544300;28;20090;-69
2021/11/24 08:01:46;;;;;;;58.28;52.47;;;;;;;;;;4543411;28;20037;-69
2021/11/24 08:03:57;;;;;;;61.23;55.13;;;;;;;;;;4543198;28;20041;-69
2021/11/24 08:06:08;;;;;;;61.47;55.38;;;;;;;;;;4541595;28;20102;-68
2021/11/24 08:08:18;;;;;;;61.30;55.40;;;;;;;;;;4542116;28;20550;-68
2021/11/24 08:10:29;;;;;;;61.27;55.23;;;;;;;;;;4542239;28;20028;-68
2021/11/24 08:12:40;;;;;;;67.37;60.87;;;;;;;;;;4543961;28;20620;-65
2021/11/24 08:14:52;;;;;;;46.87;42.37;;;;;;;;;;4542266;28;20103;-62
2021/11/24 08:17:04;;;;;;;15.25;10.70;;;;;;;;;;4545812;28;20033;-64
2021/11/24 08:19:15;;;;;;;15.40;10.68;;;;;;;;;;4543899;28;20060;-64
2021/11/24 08:21:25;;;;;;;15.25;10.50;;;;;;;;;;4543638;28;20630;-68
2021/11/24 08:23:36;;;;;;;14.67;10.27;;;;;;;;;;4542368;28;20049;-66
2021/11/24 08:25:46;;;;;;;15.47;10.30;;;;;;;;;;4542576;28;20033;-64
2021/11/24 08:27:57;;;;;;;14.75;9.95;;;;;;;;;;4542171;28;20083;-66
2021/11/24 08:30:08;;;;;;;14.80;9.87;;;;;;;;;;4543715;28;20033;-65
2021/11/24 08:32:19;;;;;;;14.80;10.20;;;;;;;;;;4544434;28;20039;-67
2021/11/24 08:34:29;;;;;;;13.80;9.53;;;;;;;;;;4541396;28;20518;-65
2021/11/24 08:36:40;;;;;;;14.20;9.73;;;;;;;;;;4543161;28;20020;-65
2021/11/24 08:38:50;;;;;;;13.97;9.77;;;;;;;;;;4545091;28;20082;-67
2021/11/24 08:41:01;;;;;;;13.73;9.90;;;;;;;;;;4542677;28;20072;-67
2021/11/24 08:43:11;;;;;;;14.53;10.07;;;;;;;;;;4544395;28;23866;-66
2021/11/24 08:45:23;;;;;;;13.17;8.87;;;;;;;;;;4547690;28;20082;-73
2021/11/24 08:47:34;;;;;;;12.73;8.55;;;;;;;;;;4554919;28;20583;-65
2021/11/24 08:49:45;;;;;;;12.30;8.52;;;;;;;;;;4544377;28;20041;-74
2021/11/24 08:51:55;;;;;;;11.97;8.47;;;;;;;;;;4546323;28;20029;-71
2021/11/24 08:54:09;;;;;;;13.43;8.97;;;;;;;;;;4545723;28;20025;-68
2021/11/24 08:56:20;;;;;;;12.82;8.52;;;;;;;;;;4547145;28;20872;-64
2021/11/24 08:58:31;;;;;;;13.77;9.27;;;;;;;;;;4521517;28;20076;-64
2021/11/24 09:00:42;;;;;;;13.57;8.98;;;;;;;;;;4544908;28;20037;-64
2021/11/24 09:02:52;;;;;;;13.02;8.95;;;;;;;;;;4543263;28;20119;-64
2021/11/24 09:05:04;;;;;;;13.17;8.80;;;;;;;;;;4545346;28;20038;-64
2021/11/24 09:07:14;;;;;;;12.57;8.60;;;;;;;;;;4545601;28;20041;-64
2021/11/24 09:09:25;;;;;;;12.80;8.83;;;;;;;;;;4548998;28;20036;-64
2021/11/24 09:11:35;;;;;;;13.70;8.90;;;;;;;;;;4546652;28;20095;-66
2021/11/24 09:13:46;;;;;;;13.33;8.37;;;;;;;;;;4545246;28;21917;-65
2021/11/24 09:15:57;;;;;;;13.55;8.95;;;;;;;;;;4547010;28;20029;-65
2021/11/24 09:18:07;;;;;;;13.47;9.37;;;;;;;;;;4545630;28;20032;-68
2021/11/24 09:20:18;;;;;;;13.40;9.00;;;;;;;;;;4546235;28;20044;-67
2021/11/24 09:22:29;;;;;;;14.90;9.93;;;;;;;;;;4548633;28;20934;-69
2021/11/24 09:24:40;;;;;;;14.07;8.50;;;;;;;;;;4545266;28;20051;-65
2021/11/24 09:27:11;;;;;;;13.07;8.45;;;;;;;;;;4554752;28;20688;-66
2021/11/24 09:29:22;;;;;;;13.57;8.93;;;;;;;;;;4548062;28;20564;-66
2021/11/24 09:31:32;;;;;;;13.07;8.77;;;;;;;;;;4544634;28;20033;-66
2021/11/24 09:33:43;;;;;;;12.67;9.00;;;;;;;;;;4544502;28;20461;-67
2021/11/24 09:35:54;;;;;;;15.40;10.75;;;;;;;;;;4554918;28;20243;-69
2021/11/24 09:38:06;;;;;;;15.40;10.20;;;;;;;;;;4546304;28;20037;-67
2021/11/24 09:40:16;;;;;;;14.65;9.82;;;;;;;;;;4547354;28;20083;-66
2021/11/24 09:42:28;;;;;;;16.27;10.83;;;;;;;;;;4543517;28;20769;-69
2021/11/24 09:44:38;;;;;;;;;;;;;;;;;;4548294;28;20207;-69
2021/11/24 09:46:51;;;;;;;15.32;9.60;;;;;;;;;;4548298;28;19919;-69
2021/11/24 09:49:05;;;;;;;14.48;10.13;;;;;;;;;;4545538;28;20124;-69
2021/11/24 09:51:16;;;;;;;13.80;9.23;;;;;;;;;;4544053;28;20645;-69
2021/11/24 09:53:28;;;;;;;13.73;8.95;;;;;;;;;;4548638;28;20033;-69
2021/11/24 09:55:40;;;;;;;14.10;10.15;;;;;;;;;;4546300;28;20131;-69
2021/11/24 09:57:52;;;;;;;13.13;8.85;;;;;;;;;;4550537;28;20183;-69
2021/11/24 10:00:05;;;;;;;14.27;9.63;;;;;;;;;;4546199;28;20029;-69
2021/11/24 10:02:22;;;;;;;12.75;9.00;;;;;;;;;;4543805;28;20047;-70
2021/11/24 10:04:33;;;;;;;12.83;9.00;;;;;;;;;;4538382;28;20493;-69
2021/11/24 10:06:43;;;;;;;15.70;10.40;;;;;;;;;;4547902;28;20468;-69
2021/11/24 10:08:54;;;;;;;15.90;10.17;;;;;;;;;;4546080;28;20032;-70
2021/11/24 10:11:04;;;;;;;14.23;9.80;;;;;;;;;;4547674;28;20892;-69
2021/11/24 10:13:15;;;;;;;15.30;10.33;;;;;;;;;;4544645;28;20136;-70
2021/11/24 10:15:40;;;;;;;14.90;9.70;;;;;;;;;;4545435;28;20430;-69
2021/11/24 10:17:51;;;;;;;15.85;10.23;;;;;;;;;;4547221;28;20501;-69
2021/11/24 10:20:07;;;;;;;15.40;9.87;;;;;;;;;;4547103;28;20547;-69
2021/11/24 10:22:19;;;;;;;14.27;9.32;;;;;;;;;;4547074;28;20031;-69
2021/11/24 10:24:41;;;;;;;14.20;9.57;;;;;;;;;;4546442;28;20587;-69
2021/11/24 10:26:52;;;;;;;15.27;9.38;;;;;;;;;;4549009;28;20079;-69
2021/11/24 10:29:07;;;;;;;13.57;9.47;;;;;;;;;;4546621;28;20032;-69
2021/11/24 10:31:33;;;;;;;14.70;9.70;;;;;;;;;;4554928;28;20071;-69
2021/11/24 10:33:44;;;;;;;14.80;9.70;;;;;;;;;;4533753;28;20041;-68
2021/11/24 10:36:06;;;;;;;14.53;9.80;;;;;;;;;;4547125;28;20439;-68
2021/11/24 10:38:18;;;;;;;14.70;9.38;;;;;;;;;;4549489;28;20047;-68
2021/11/24 10:40:40;;;;;;;12.15;8.55;;;;;;;;;;4547215;28;20102;-68
2021/11/24 10:42:51;;;;;;;14.45;9.63;;;;;;;;;;4550592;28;20526;-68
2021/11/24 10:45:13;;;;;;;13.10;8.90;;;;;;;;;;4545543;28;20045;-68
2021/11/24 10:47:26;;;;;;;12.65;8.85;;;;;;;;;;4543616;28;20102;-68
2021/11/24 10:49:49;;;;;;;13.27;8.75;;;;;;;;;;4544431;28;20059;-68
2021/11/24 10:52:10;;;;;;;13.57;8.77;;;;;;;;;;4546499;28;20111;-68
2021/11/24 10:54:21;;;;;;;15.40;9.10;;;;;;;;;;4528248;28;20036;-68
2021/11/24 10:56:32;;;;;;;12.33;8.13;;;;;;;;;;4545547;28;20033;-67
2021/11/24 10:58:42;;;;;;;12.70;8.17;;;;;;;;;;4545792;28;20040;-68
2021/11/24 11:00:55;;;;;;;13.73;8.93;;;;;;;;;;4546972;28;21287;-68
2021/11/24 11:03:07;;;;;;;13.43;8.95;;;;;;;;;;4545038;28;20063;-68
2021/11/24 11:05:19;;;;;;;12.93;8.48;;;;;;;;;;4547459;28;20036;-68
2021/11/24 11:07:32;;;;;;;12.95;8.63;;;;;;;;;;4543829;28;20079;-68
2021/11/24 11:09:42;;;;;;;12.38;8.10;;;;;;;;;;4543592;28;20128;-68
2021/11/24 11:11:53;;;;;;;12.83;8.50;;;;;;;;;;4546827;28;20033;-68
2021/11/24 11:14:22;;;;;;;12.60;8.70;;;;;;;;;;4546029;28;24090;-68
2021/11/24 11:16:46;;;;;;;12.90;8.45;;;;;;;;;;4545692;28;20043;-68
2021/11/24 11:18:57;;;;;;;12.57;8.07;;;;;;;;;;4547784;28;20055;-68
2021/11/24 11:21:11;;;;;;;12.30;8.30;;;;;;;;;;4544612;28;20040;-68
2021/11/24 11:23:29;;;;;;;12.45;8.30;;;;;;;;;;4543626;28;20820;-68
2021/11/24 11:25:43;;;;;;;13.30;8.82;;;;;;;;;;4543736;28;20063;-68
2021/11/24 11:27:54;;;;;;;11.48;8.43;;;;;;;;;;4545506;28;20040;-68
2021/11/24 11:30:05;;;;;;;14.80;8.53;;;;;;;;;;4545955;28;20037;-68
2021/11/24 11:32:15;;;;;;;12.35;8.20;;;;;;;;;;4544838;28;20035;-68
2021/11/24 11:34:26;;;;;;;11.67;7.53;;;;;;;;;;4544897;28;20044;-68
2021/11/24 11:36:36;;;;;;;11.80;8.07;;;;;;;;;;4544528;28;20512;-68
2021/11/24 11:38:49;;;;;;;12.57;7.67;;;;;;;;;;4548231;28;20755;-68
2021/11/24 11:41:01;;;;;;;11.40;7.80;;;;;;;;;;4541778;28;20040;-68
2021/11/24 11:43:12;;;;;;;12.23;7.63;;;;;;;;;;4545266;28;20506;-68
2021/11/24 11:45:23;;;;;;;12.55;8.40;;;;;;;;;;4545933;28;20552;-68
2021/11/24 11:47:53;;;;;;;11.77;7.43;;;;;;;;;;4546318;28;20682;-68
2021/11/24 11:50:04;;;;;;;11.27;7.72;;;;;;;;;;4542591;28;20041;-69
2021/11/24 11:52:15;;;;;;;11.68;7.78;;;;;;;;;;4545851;28;20025;-68
2021/11/24 11:54:30;;;;;;;12.17;8.30;;;;;;;;;;4545407;28;20817;-68
2021/11/24 11:56:44;;;;;;;12.18;8.18;;;;;;;;;;4545341;28;20036;-68
2021/11/24 11:59:07;;;;;;;11.35;8.07;;;;;;;;;;4545561;28;20694;-68
2021/11/24 12:01:27;;;;;;;11.80;8.07;;;;;;;;;;4544396;28;20041;-68
2021/11/24 12:04:00;;;;;;;11.82;7.70;;;;;;;;;;4546181;28;20049;-68
2021/11/24 12:06:17;;;;;;;11.90;7.90;;;;;;;;;;4546077;28;20036;-68
2021/11/24 12:08:27;;;;;;;11.45;8.35;;;;;;;;;;4542746;28;21004;-68
2021/11/24 12:10:56;;;;;;;11.20;7.63;;;;;;;;;;4542628;28;29366;-67
2021/11/24 12:13:07;;;;;;;11.70;7.80;;;;;;;;;;4546187;28;20057;-67
2021/11/24 12:15:28;;;;;;;10.95;7.43;;;;;;;;;;4553143;28;20037;-67
2021/11/24 12:17:50;;;;;;;11.60;7.68;;;;;;;;;;4543131;28;20080;-68
2021/11/24 12:20:12;;;;;;;12.32;8.10;;;;;;;;;;4548747;28;20068;-67
2021/11/24 12:22:55;;;;;;;11.82;8.07;;;;;;;;;;4548880;28;20095;-67
2021/11/24 12:25:05;;;;;;;11.73;7.85;;;;;;;;;;4548604;28;20588;-68
2021/11/24 12:27:16;;;;;;;10.63;6.97;;;;;;;;;;4546628;28;32134;-67
2021/11/24 12:29:48;;;;;;;11.27;7.53;;;;;;;;;;4550055;28;20037;-67
2021/11/24 12:32:02;;;;;;;;;;;;;;;;;;4557722;28;20075;-67
2021/11/24 12:34:12;;;;;;;10.35;6.70;;;;;;;;;;4546672;28;20506;-67
2021/11/24 12:36:29;;;;;;;11.73;7.40;;;;;;;;;;4548963;28;20040;-67
2021/11/24 12:39:04;;;;;;;11.30;7.50;;;;;;;;;;4548421;28;20036;-67
2021/11/24 12:41:17;;;;;;;10.32;6.75;;;;;;;;;;4534746;28;20595;-67
2021/11/24 12:43:31;;;;;;;10.65;7.13;;;;;;;;;;4548215;28;20028;-67
2021/11/24 12:46:18;;;;;;;10.23;6.25;;;;;;;;;;4550776;28;20038;-68
2021/11/24 12:48:33;;;;;;;10.02;6.50;;;;;;;;;;4548418;28;20081;-68